createdAt,value
2023-01-13T00:05:26.703Z,36.50
2023-01-13T00:08:29.739Z,40.65
2023-01-13T00:11:32.518Z,39.65
2023-01-13T00:14:36.468Z,44.72
2023-01-13T00:17:39.430Z,41.63
2023-01-13T00:20:42.191Z,40.50
2023-01-13T00:23:45.446Z,37.60
2023-01-13T00:26:48.516Z,38.33
2023-01-13T00:29:51.308Z,41.03
2023-01-13T00:32:54.073Z,36.85
2023-01-13T00:36:01.867Z,33.25
2023-01-13T00:39:04.673Z,38.95
2023-01-13T00:42:26.439Z,38.75
2023-01-13T00:45:29.307Z,35.33
2023-01-13T00:48:32.933Z,41.08
2023-01-13T00:51:35.833Z,38.80
2023-01-13T00:54:38.628Z,36.58
2023-01-13T00:57:41.412Z,40.45
2023-01-13T01:00:45.873Z,37.90
2023-01-13T01:03:52.290Z,40.08
2023-01-13T01:06:55.087Z,38.20
2023-01-13T01:09:58.064Z,35.22
2023-01-13T01:13:01.008Z,39.65
2023-01-13T01:16:09.014Z,36.88
2023-01-13T01:19:12.022Z,37.63
2023-01-13T01:22:16.137Z,39.35
2023-01-13T01:25:18.904Z,39.20
2023-01-13T01:28:21.734Z,34.83
2023-01-13T01:31:31.542Z,38.83
2023-01-13T01:34:34.370Z,36.50
2023-01-13T01:37:37.200Z,31.52
2023-01-13T01:40:40.051Z,33.65
2023-01-13T01:44:03.859Z,34.63
2023-01-13T01:47:07.124Z,34.65
2023-01-13T01:50:10.668Z,31.33
2023-01-13T01:56:20.021Z,36.00
2023-01-13T01:59:24.011Z,29.92
2023-01-13T02:02:29.003Z,33.65
2023-01-13T02:05:34.307Z,32.33
2023-01-13T02:08:39.067Z,28.90
2023-01-13T02:12:00.923Z,32.53
2023-01-13T02:15:13.253Z,35.67
2023-01-13T02:18:16.260Z,31.33
2023-01-13T02:22:09.552Z,29.12
2023-01-13T02:25:48.827Z,29.17
2023-01-13T02:29:36.196Z,30.17
2023-01-13T02:32:56.195Z,31.23
2023-01-13T02:36:06.624Z,27.45
2023-01-13T02:39:21.521Z,26.02
2023-01-13T02:42:49.612Z,29.42
2023-01-13T02:46:18.057Z,27.87
2023-01-13T02:49:53.595Z,28.73
2023-01-13T02:53:01.320Z,28.30
2023-01-13T02:56:06.132Z,24.55
2023-01-13T02:59:10.064Z,25.45
2023-01-13T03:02:16.761Z,25.02
2023-01-13T03:05:20.185Z,27.42
2023-01-13T03:08:39.801Z,24.92
2023-01-13T03:12:14.284Z,27.62
2023-01-13T03:15:37.156Z,25.10
2023-01-13T03:19:09.702Z,26.02
2023-01-13T03:22:30.953Z,26.12
2023-01-13T03:25:43.415Z,25.45
2023-01-13T03:28:52.580Z,25.27
2023-01-13T03:32:01.100Z,24.85
2023-01-13T03:35:17.686Z,23.40
2023-01-13T03:38:26.425Z,24.63
2023-01-13T03:41:54.614Z,25.95
2023-01-13T03:45:12.636Z,22.20
2023-01-13T03:48:19.026Z,24.55
2023-01-13T03:51:26.190Z,26.35
2023-01-13T03:54:32.966Z,27.80
2023-01-13T03:57:46.639Z,29.17
2023-01-13T04:01:03.539Z,25.88
2023-01-13T04:04:12.721Z,22.55
2023-01-13T04:07:28.855Z,22.52
2023-01-13T04:10:40.079Z,27.23
2023-01-13T04:13:46.099Z,25.08
2023-01-13T04:16:49.588Z,26.55
2023-01-13T04:19:52.078Z,23.70
2023-01-13T04:22:55.157Z,24.63
2023-01-13T04:25:57.694Z,25.98
2023-01-13T04:29:00.761Z,25.52
2023-01-13T04:32:03.605Z,20.83
2023-01-13T04:38:14.451Z,25.83
2023-01-13T04:41:17.582Z,23.83
2023-01-13T04:44:20.122Z,24.87
2023-01-13T04:47:23.346Z,24.63
2023-01-13T04:50:26.432Z,26.63
2023-01-13T04:53:29.574Z,22.73
2023-01-13T04:56:32.216Z,21.40
2023-01-13T04:59:35.282Z,21.37
2023-01-13T05:02:37.827Z,24.95
2023-01-13T05:05:40.976Z,23.33
2023-01-13T05:08:43.493Z,22.77
2023-01-13T05:12:05.456Z,23.25
2023-01-13T05:15:28.642Z,25.25
2023-01-13T05:18:31.767Z,22.60
2023-01-13T05:21:52.862Z,26.90
2023-01-13T05:25:14.503Z,28.95
2023-01-13T05:28:17.289Z,26.62
2023-01-13T05:31:20.454Z,27.10
2023-01-13T05:34:22.980Z,24.87
2023-01-13T05:37:26.910Z,27.15
2023-01-13T05:40:48.424Z,25.92
2023-01-13T05:43:51.509Z,28.92
2023-01-13T05:46:54.069Z,27.00
2023-01-13T05:49:57.148Z,31.33
2023-01-13T05:52:59.777Z,23.73
2023-01-13T05:56:07.034Z,26.65
2023-01-13T05:59:10.160Z,24.45
2023-01-13T06:05:15.970Z,26.12
2023-01-13T06:08:19.188Z,23.92
2023-01-13T06:11:22.279Z,25.00
2023-01-13T06:14:25.144Z,28.20
2023-01-13T06:17:27.961Z,22.10
2023-01-13T06:20:31.370Z,25.20
2023-01-13T06:26:41.588Z,23.55
2023-01-13T06:29:44.491Z,23.27
2023-01-13T06:32:53.316Z,24.60
2023-01-13T06:36:00.151Z,25.65
2023-01-13T06:39:04.733Z,27.25
2023-01-13T06:42:26.412Z,27.87
2023-01-13T06:45:31.418Z,26.35
2023-01-13T06:48:35.556Z,24.23
2023-01-13T06:51:38.555Z,26.60
2023-01-13T06:54:41.454Z,24.42
2023-01-13T06:57:52.665Z,28.62
2023-01-13T07:01:00.237Z,27.40
2023-01-13T07:04:03.246Z,25.02
2023-01-13T07:07:07.813Z,23.75
2023-01-13T07:10:13.299Z,23.45
2023-01-13T07:13:34.746Z,23.10
2023-01-13T07:16:37.612Z,23.52
2023-01-13T07:19:40.457Z,24.75
2023-01-13T07:22:46.036Z,21.23
2023-01-13T07:25:49.337Z,22.25
2023-01-13T07:31:55.087Z,22.42
2023-01-13T07:34:58.665Z,21.27
2023-01-13T07:38:01.481Z,22.15
2023-01-13T07:41:24.325Z,19.80
2023-01-13T07:44:27.809Z,23.48
2023-01-13T07:50:33.359Z,23.38
2023-01-13T07:53:36.962Z,19.37
2023-01-13T07:56:39.915Z,23.27
2023-01-13T07:59:42.797Z,19.90
2023-01-13T08:02:45.713Z,22.08
2023-01-13T08:05:49.081Z,21.15
2023-01-13T08:08:51.743Z,19.33
2023-01-13T08:12:13.382Z,19.45
2023-01-13T08:15:16.406Z,22.23
2023-01-13T08:18:22.635Z,22.25
2023-01-13T08:21:25.552Z,20.30
2023-01-13T08:27:31.008Z,20.55
2023-01-13T08:30:34.333Z,21.15
2023-01-13T08:33:37.650Z,19.40
2023-01-13T08:36:41.222Z,18.08
2023-01-13T08:39:43.885Z,18.35
2023-01-13T08:42:48.570Z,17.75
2023-01-13T08:45:57.418Z,16.48
2023-01-13T08:49:00.893Z,18.00
2023-01-13T08:52:04.163Z,16.75
2023-01-13T08:55:08.585Z,16.58
2023-01-13T08:58:15.782Z,17.05
2023-01-13T09:01:23.178Z,17.65
2023-01-13T09:04:28.018Z,14.68
2023-01-13T09:07:31.367Z,16.95
2023-01-13T09:10:35.656Z,17.80
2023-01-13T09:13:39.748Z,17.25
2023-01-13T09:19:45.248Z,17.80
2023-01-13T09:22:48.787Z,17.33
2023-01-13T09:25:52.949Z,18.67
2023-01-13T09:31:58.570Z,19.02
2023-01-13T09:35:01.394Z,21.67
2023-01-13T09:38:06.201Z,19.35
2023-01-13T09:41:43.262Z,20.55
2023-01-13T09:45:01.871Z,21.33
2023-01-13T09:48:13.757Z,23.15
2023-01-13T09:51:31.967Z,23.42
2023-01-13T09:55:03.994Z,22.62
2023-01-13T09:58:19.241Z,26.45
2023-01-13T10:01:38.683Z,25.77
2023-01-13T10:04:41.927Z,24.83
2023-01-13T10:07:52.372Z,23.97
2023-01-13T10:10:57.320Z,23.48
2023-01-13T10:14:03.162Z,22.30
2023-01-13T10:17:34.251Z,25.48
2023-01-13T10:20:40.578Z,29.25
2023-01-13T10:23:52.837Z,24.12
2023-01-13T10:27:01.593Z,23.80
2023-01-13T10:30:20.176Z,23.30
2023-01-13T10:33:30.774Z,26.87
2023-01-13T10:36:34.102Z,28.00
2023-01-13T10:39:45.954Z,28.83
2023-01-13T10:42:49.192Z,25.73
2023-01-13T10:46:05.907Z,26.67
2023-01-13T10:49:36.556Z,26.20
2023-01-13T10:52:54.734Z,26.37
2023-01-13T10:56:03.460Z,29.35
2023-01-13T10:59:18.619Z,25.55
2023-01-13T11:02:36.868Z,28.25
2023-01-13T11:05:40.199Z,29.55
2023-01-13T11:08:46.271Z,27.77
2023-01-13T11:11:55.444Z,30.73
2023-01-13T11:15:02.516Z,26.60
2023-01-13T11:18:14.021Z,29.25
2023-01-13T11:21:35.269Z,25.98
2023-01-13T11:24:57.327Z,25.90
2023-01-13T11:28:26.993Z,26.05
2023-01-13T11:31:43.167Z,25.85
2023-01-13T11:34:54.649Z,25.58
2023-01-13T11:38:09.603Z,27.42
2023-01-13T11:41:20.979Z,29.15
2023-01-13T11:44:36.034Z,29.02
2023-01-13T11:47:39.525Z,27.83
2023-01-13T11:51:00.084Z,37.90
2023-01-13T11:54:29.485Z,30.48
2023-01-13T11:57:57.968Z,30.33
2023-01-13T12:01:22.295Z,31.55
2023-01-13T12:04:53.225Z,35.22
2023-01-13T12:08:04.885Z,33.15
2023-01-13T12:11:10.649Z,34.13
2023-01-13T12:14:33.571Z,33.67
2023-01-13T12:17:48.193Z,33.15
2023-01-13T12:21:06.269Z,32.50
2023-01-13T12:24:30.040Z,32.17
2023-01-13T12:27:32.904Z,34.60
2023-01-13T12:30:50.908Z,35.47
2023-01-13T12:34:26.198Z,35.95
2023-01-13T12:37:44.952Z,37.15
2023-01-13T12:41:01.844Z,34.08
2023-01-13T12:44:17.137Z,33.17
2023-01-13T12:47:52.864Z,37.30
2023-01-13T12:51:00.772Z,34.95
2023-01-13T12:54:51.278Z,39.53
2023-01-13T12:58:06.176Z,35.65
2023-01-13T13:01:14.440Z,39.10
2023-01-13T13:04:44.029Z,39.90
2023-01-13T13:08:14.595Z,35.50
2023-01-13T13:11:40.963Z,38.63
2023-01-13T13:14:44.287Z,39.85
2023-01-13T13:18:19.647Z,37.03
2023-01-13T13:21:22.509Z,37.15
2023-01-13T13:24:26.558Z,36.85
2023-01-13T13:27:41.202Z,34.92
2023-01-13T13:30:55.884Z,34.13
2023-01-13T13:34:19.291Z,31.92
2023-01-13T13:38:19.738Z,35.72
2023-01-13T13:41:45.003Z,35.97
2023-01-13T13:45:08.116Z,35.47
2023-01-13T13:48:25.587Z,34.72
2023-01-13T13:51:38.405Z,32.58
2023-01-13T13:57:49.885Z,29.52
2023-01-13T14:00:54.431Z,31.33
2023-01-13T14:04:09.603Z,29.23
2023-01-13T14:07:21.721Z,30.27
2023-01-13T14:10:33.273Z,27.48
2023-01-13T14:13:36.150Z,33.60
2023-01-13T14:16:40.782Z,29.08
2023-01-13T14:19:47.700Z,32.38
2023-01-13T14:22:54.873Z,29.60
2023-01-13T14:26:08.847Z,31.00
2023-01-13T14:29:18.464Z,28.75
2023-01-13T14:32:26.311Z,26.55
2023-01-13T14:35:30.084Z,25.37
2023-01-13T14:38:33.561Z,29.17
2023-01-13T14:41:50.952Z,25.30
2023-01-13T14:44:56.274Z,25.90
2023-01-13T14:48:01.550Z,27.37
2023-01-13T14:51:14.319Z,33.63
2023-01-13T14:54:47.517Z,30.62
2023-01-13T14:57:54.305Z,33.55
2023-01-13T15:01:25.822Z,30.37
2023-01-13T15:04:39.063Z,40.35
2023-01-13T15:07:56.397Z,33.83
2023-01-13T15:11:02.742Z,32.83
2023-01-13T15:14:10.966Z,33.03
2023-01-13T15:17:17.477Z,30.67
2023-01-13T15:20:25.920Z,33.28
2023-01-13T15:23:29.681Z,33.80
2023-01-13T15:26:35.779Z,35.58
2023-01-13T15:32:44.737Z,34.40
2023-01-13T15:35:52.779Z,35.15
2023-01-13T15:38:59.467Z,34.90
2023-01-13T15:42:21.492Z,36.15
2023-01-13T15:45:43.876Z,35.70
2023-01-13T15:48:53.010Z,35.72
2023-01-13T15:51:56.470Z,35.97
2023-01-13T15:58:03.007Z,35.77
2023-01-13T16:01:10.139Z,35.33
2023-01-13T16:04:16.243Z,39.85
2023-01-13T16:07:25.092Z,32.90
2023-01-13T16:10:28.523Z,31.83
2023-01-13T16:13:33.892Z,34.28
2023-01-13T16:16:40.867Z,38.47
2023-01-13T16:19:44.940Z,32.47
2023-01-13T16:22:50.693Z,31.90
2023-01-13T16:25:56.672Z,33.17
2023-01-13T16:28:59.936Z,36.60
2023-01-13T16:35:06.896Z,33.20
2023-01-13T16:38:21.411Z,37.45
2023-01-13T16:41:25.159Z,30.92
2023-01-13T16:44:28.628Z,31.92
2023-01-13T16:47:31.858Z,36.60
2023-01-13T16:53:45.398Z,39.22
2023-01-13T16:56:48.843Z,33.35
2023-01-13T16:59:52.162Z,33.00
2023-01-13T17:03:05.258Z,32.65
2023-01-13T17:06:11.175Z,35.85
2023-01-13T17:09:23.411Z,34.85
2023-01-13T17:12:26.660Z,33.33
2023-01-13T17:18:36.165Z,31.45
2023-01-13T17:21:51.183Z,33.17
2023-01-13T17:24:54.535Z,33.65
2023-01-13T17:28:00.904Z,29.23
2023-01-13T17:31:04.273Z,31.48
2023-01-13T17:34:08.380Z,31.25
2023-01-13T17:37:15.173Z,30.08
2023-01-13T17:40:20.880Z,30.77
2023-01-13T17:43:25.336Z,29.12
2023-01-13T17:46:31.550Z,29.10
2023-01-13T17:49:40.337Z,31.73
2023-01-13T17:52:48.817Z,28.95
2023-01-13T17:55:58.413Z,28.60
2023-01-13T17:59:36.168Z,29.90
2023-01-13T18:02:48.986Z,27.27
2023-01-13T18:05:52.312Z,28.45
2023-01-13T18:12:00.458Z,27.08
2023-01-13T18:15:04.145Z,28.42
2023-01-13T18:18:07.413Z,30.25
2023-01-13T18:25:13.472Z,28.33
2023-01-13T18:28:17.029Z,32.72
2023-01-13T18:34:23.468Z,31.83
2023-01-13T18:37:27.302Z,30.10
2023-01-13T18:40:30.748Z,31.65
2023-01-13T18:44:10.816Z,33.35
2023-01-13T18:47:14.238Z,30.27
2023-01-13T18:50:19.651Z,30.30
2023-01-13T18:56:26.259Z,30.10
2023-01-13T18:59:30.018Z,32.83
2023-01-13T19:02:33.306Z,31.98
2023-01-13T19:08:42.175Z,35.60
2023-01-13T19:11:49.587Z,33.13
2023-01-13T19:14:54.398Z,34.65
2023-01-13T19:17:57.279Z,36.63
2023-01-13T19:21:05.152Z,34.80
2023-01-13T19:24:08.390Z,32.05
2023-01-13T19:27:14.545Z,38.67
2023-01-13T19:30:17.720Z,35.55
2023-01-13T19:33:20.661Z,37.63
2023-01-13T19:36:23.502Z,37.63
2023-01-13T19:39:26.545Z,37.75
2023-01-13T19:42:48.359Z,34.08
2023-01-13T19:45:51.367Z,36.47
2023-01-13T19:48:54.291Z,37.08
2023-01-13T19:51:57.461Z,34.08
2023-01-13T19:55:01.958Z,33.63
2023-01-13T19:58:05.583Z,38.13
2023-01-13T20:04:14.479Z,37.15
2023-01-13T20:07:17.593Z,39.92
2023-01-13T20:10:22.101Z,35.88
2023-01-13T20:13:25.275Z,36.72
2023-01-13T20:16:30.040Z,38.33
2023-01-13T20:19:33.482Z,38.53
2023-01-13T20:22:39.804Z,39.42
2023-01-13T20:25:43.389Z,40.42
2023-01-13T20:28:47.288Z,39.25
2023-01-13T20:31:51.024Z,37.10
2023-01-13T20:37:56.947Z,36.72
2023-01-13T20:41:01.388Z,35.53
2023-01-13T20:44:05.327Z,37.42
2023-01-13T20:47:08.718Z,42.85
2023-01-13T20:50:12.684Z,38.85
2023-01-13T20:53:15.544Z,38.05
2023-01-13T20:56:18.387Z,39.83
2023-01-13T20:59:22.916Z,43.20
2023-01-13T21:02:25.740Z,37.58
2023-01-13T21:05:29.569Z,39.95
2023-01-13T21:08:32.514Z,39.15
2023-01-13T21:11:54.005Z,38.45
2023-01-13T21:15:23.542Z,43.38
2023-01-13T21:18:45.523Z,38.30
2023-01-13T21:21:48.376Z,43.05
2023-01-13T21:24:51.353Z,42.13
2023-01-13T21:27:54.900Z,43.85
2023-01-13T21:31:09.226Z,41.30
2023-01-13T21:34:12.678Z,42.65
2023-01-13T21:37:16.425Z,46.10
2023-01-13T21:40:19.859Z,43.83
2023-01-13T21:43:41.937Z,42.40
2023-01-13T21:47:03.881Z,40.35
2023-01-13T21:50:10.348Z,41.33
2023-01-13T21:53:13.282Z,45.35
2023-01-13T21:56:16.125Z,40.20
2023-01-13T21:59:19.669Z,41.03
2023-01-13T22:02:29.153Z,41.75
2023-01-13T22:05:32.634Z,41.28
2023-01-13T22:08:35.754Z,44.30
2023-01-13T22:11:39.026Z,47.78
2023-01-13T22:14:41.951Z,44.07
2023-01-13T22:17:48.814Z,43.00
2023-01-13T22:20:51.659Z,43.10
2023-01-13T22:26:57.206Z,45.92
2023-01-13T22:30:00.339Z,47.55
2023-01-13T22:33:03.010Z,49.37
2023-01-13T22:36:08.121Z,47.10
2023-01-13T22:39:11.314Z,49.22
2023-01-13T22:42:14.701Z,50.47
2023-01-13T22:45:18.835Z,46.37
2023-01-13T22:48:21.929Z,46.75
2023-01-13T22:51:25.226Z,44.50
2023-01-13T22:54:28.345Z,44.15
2023-01-13T22:57:35.949Z,48.00
2023-01-13T23:00:46.832Z,44.88
2023-01-13T23:03:50.389Z,46.85
2023-01-13T23:06:53.560Z,45.53
2023-01-13T23:09:56.111Z,40.33
2023-01-13T23:12:59.196Z,41.17
2023-01-13T23:16:03.568Z,43.43
2023-01-13T23:19:07.558Z,44.95
2023-01-13T23:25:13.045Z,49.38
2023-01-13T23:28:15.621Z,48.57
2023-01-13T23:31:21.282Z,49.63
2023-01-13T23:34:23.798Z,47.40
2023-01-13T23:37:26.910Z,43.95
2023-01-13T23:40:29.429Z,45.57
2023-01-13T23:43:32.883Z,51.63
2023-01-13T23:46:35.641Z,46.28
2023-01-13T23:49:38.964Z,42.60
2023-01-13T23:52:41.503Z,49.25
2023-01-13T23:55:44.572Z,47.17
2023-01-13T23:58:48.110Z,50.80
